createdAt,value
2023-01-20T00:01:24.756Z,6.63
2023-01-20T00:03:54.119Z,6.60
2023-01-20T00:06:22.337Z,5.90
2023-01-20T00:08:53.943Z,5.72
2023-01-20T00:11:22.125Z,5.65
2023-01-20T00:13:49.109Z,5.53
2023-01-20T00:16:18.237Z,6.13
2023-01-20T00:18:45.126Z,8.20
2023-01-20T00:21:13.934Z,5.68
2023-01-20T00:23:41.735Z,5.32
2023-01-20T00:26:11.669Z,5.95
2023-01-20T00:28:38.664Z,5.47
2023-01-20T00:31:26.383Z,5.57
2023-01-20T00:33:56.316Z,5.72
2023-01-20T00:36:24.563Z,5.93
2023-01-20T00:38:51.705Z,5.20
2023-01-20T00:41:19.237Z,4.90
2023-01-20T00:43:46.918Z,4.75
2023-01-20T00:46:15.119Z,5.03
2023-01-20T00:48:42.527Z,5.18
2023-01-20T00:51:10.538Z,6.18
2023-01-20T00:53:37.967Z,5.80
2023-01-20T00:56:05.367Z,4.53
2023-01-20T00:58:32.279Z,4.82
2023-01-20T01:01:02.131Z,5.72
2023-01-20T01:03:30.294Z,4.32
2023-01-20T01:06:14.678Z,4.30
2023-01-20T01:08:42.128Z,3.67
2023-01-20T01:11:10.208Z,4.63
2023-01-20T01:13:38.810Z,4.93
2023-01-20T01:16:10.729Z,4.15
2023-01-20T01:18:37.702Z,4.47
2023-01-20T01:21:13.771Z,4.25
2023-01-20T01:23:40.890Z,4.53
2023-01-20T01:26:08.507Z,4.40
2023-01-20T01:28:35.643Z,4.25
2023-01-20T01:31:04.582Z,4.43
2023-01-20T01:33:32.282Z,4.30
2023-01-20T01:36:01.480Z,4.78
2023-01-20T01:38:29.290Z,3.67
2023-01-20T01:40:56.543Z,4.60
2023-01-20T01:43:26.174Z,3.85
2023-01-20T01:45:53.414Z,3.97
2023-01-20T01:48:28.698Z,4.35
2023-01-20T01:51:07.945Z,3.67
2023-01-20T01:53:44.083Z,4.25
2023-01-20T01:56:12.108Z,3.80
2023-01-20T01:58:44.701Z,3.97
2023-01-20T02:01:12.420Z,3.92
2023-01-20T02:03:47.853Z,3.78
2023-01-20T02:06:15.697Z,3.47
2023-01-20T02:08:42.788Z,4.28
2023-01-20T02:11:09.747Z,4.00
2023-01-20T02:13:36.654Z,3.88
2023-01-20T02:16:12.490Z,3.53
2023-01-20T02:19:08.576Z,5.15
2023-01-20T02:22:10.492Z,3.85
2023-01-20T02:25:12.767Z,3.63
2023-01-20T02:27:58.212Z,3.63
2023-01-20T02:33:20.754Z,3.50
2023-01-20T02:35:57.412Z,3.45
2023-01-20T02:38:27.044Z,3.55
2023-01-20T02:41:15.739Z,3.42
2023-01-20T02:43:50.745Z,3.20
2023-01-20T02:46:34.408Z,3.88
2023-01-20T02:49:15.369Z,3.08
2023-01-20T02:51:58.569Z,3.50
2023-01-20T02:54:30.606Z,3.40
2023-01-20T02:57:00.902Z,3.30
2023-01-20T02:59:32.969Z,3.50
2023-01-20T03:02:05.129Z,4.00
2023-01-20T03:04:42.011Z,3.28
2023-01-20T03:07:13.059Z,3.60
2023-01-20T03:09:45.280Z,3.33
2023-01-20T03:12:18.817Z,2.75
2023-01-20T03:14:45.840Z,3.28
2023-01-20T03:17:12.860Z,2.85
2023-01-20T03:19:39.793Z,3.17
2023-01-20T03:22:07.227Z,3.13
2023-01-20T03:24:37.069Z,2.88
2023-01-20T03:27:05.057Z,2.83
2023-01-20T03:29:32.688Z,3.10
2023-01-20T03:32:02.277Z,2.55
2023-01-20T03:34:33.545Z,2.75
2023-01-20T03:37:01.776Z,2.50
2023-01-20T03:39:29.080Z,2.50
2023-01-20T03:42:02.060Z,2.95
2023-01-20T03:45:09.073Z,3.65
2023-01-20T03:47:59.351Z,2.75
2023-01-20T03:50:43.317Z,2.53
2023-01-20T03:53:34.509Z,2.75
2023-01-20T03:56:09.527Z,2.88
2023-01-20T03:58:43.775Z,2.47
2023-01-20T04:01:18.715Z,1.77
2023-01-20T04:03:48.984Z,2.35
2023-01-20T04:06:18.301Z,2.47
2023-01-20T04:08:55.075Z,2.40
2023-01-20T04:11:23.459Z,2.28
2023-01-20T04:13:51.248Z,3.15
2023-01-20T04:16:19.694Z,2.60
2023-01-20T04:19:01.927Z,2.40
2023-01-20T04:21:37.074Z,2.42
2023-01-20T04:24:28.462Z,2.58
2023-01-20T04:26:57.892Z,2.33
2023-01-20T04:29:25.009Z,2.53
2023-01-20T04:31:59.193Z,2.50
2023-01-20T04:34:26.197Z,2.30
2023-01-20T04:36:53.297Z,2.30
2023-01-20T04:39:20.472Z,2.05
2023-01-20T04:41:48.480Z,2.33
2023-01-20T04:44:15.391Z,2.83
2023-01-20T04:46:42.274Z,2.40
2023-01-20T04:49:11.275Z,3.17
2023-01-20T04:51:38.260Z,2.70
2023-01-20T04:54:05.601Z,2.45
2023-01-20T04:56:32.777Z,3.45
2023-01-20T04:58:59.682Z,2.35
2023-01-20T05:01:26.804Z,2.90
2023-01-20T05:03:53.618Z,2.00
2023-01-20T05:06:20.634Z,2.55
2023-01-20T05:08:47.598Z,2.83
2023-01-20T05:11:14.664Z,2.22
2023-01-20T05:13:41.726Z,2.38
2023-01-20T05:16:10.318Z,2.17
2023-01-20T05:18:37.629Z,2.50
2023-01-20T05:21:05.707Z,2.15
2023-01-20T05:23:32.681Z,2.33
2023-01-20T05:25:59.631Z,2.80
2023-01-20T05:28:26.677Z,2.97
2023-01-20T05:30:53.644Z,2.53
2023-01-20T05:33:20.454Z,2.60
2023-01-20T05:35:47.368Z,2.60
2023-01-20T05:38:14.455Z,2.80
2023-01-20T05:40:41.746Z,2.67
2023-01-20T05:43:08.635Z,2.40
2023-01-20T05:45:35.412Z,2.75
2023-01-20T05:48:03.381Z,2.92
2023-01-20T05:50:30.380Z,2.50
2023-01-20T05:52:57.172Z,2.78
2023-01-20T05:55:24.183Z,2.70
2023-01-20T05:57:51.285Z,2.65
2023-01-20T06:00:19.048Z,2.50
2023-01-20T06:02:46.378Z,3.25
2023-01-20T06:05:14.420Z,2.78
2023-01-20T06:07:41.664Z,3.08
2023-01-20T06:10:09.096Z,3.22
2023-01-20T06:12:35.905Z,3.17
2023-01-20T06:15:03.141Z,2.30
2023-01-20T06:17:30.081Z,3.00
2023-01-20T06:19:57.034Z,3.33
2023-01-20T06:22:24.070Z,2.90
2023-01-20T06:24:50.844Z,3.17
2023-01-20T06:27:18.645Z,3.60
2023-01-20T06:29:45.722Z,3.42
2023-01-20T06:32:12.584Z,3.10
2023-01-20T06:34:39.504Z,3.45
2023-01-20T06:37:06.648Z,2.97
2023-01-20T06:39:33.381Z,3.35
2023-01-20T06:42:00.910Z,3.28
2023-01-20T06:44:27.961Z,3.72
2023-01-20T06:46:55.096Z,2.85
2023-01-20T06:49:22.109Z,3.35
2023-01-20T06:51:49.658Z,3.47
2023-01-20T06:54:17.205Z,3.65
2023-01-20T06:56:44.232Z,3.45
2023-01-20T06:59:12.391Z,3.33
2023-01-20T07:01:39.610Z,2.92
2023-01-20T07:04:06.893Z,3.40
2023-01-20T07:06:41.634Z,3.33
2023-01-20T07:09:11.563Z,3.80
2023-01-20T07:11:38.662Z,3.65
2023-01-20T07:14:06.148Z,3.35
2023-01-20T07:16:34.329Z,3.70
2023-01-20T07:19:01.381Z,3.22
2023-01-20T07:21:28.453Z,3.78
2023-01-20T07:23:55.929Z,4.03
2023-01-20T07:26:27.869Z,4.18
2023-01-20T07:28:54.760Z,4.10
2023-01-20T07:31:27.170Z,3.50
2023-01-20T07:33:57.509Z,4.15
2023-01-20T07:36:25.066Z,3.60
2023-01-20T07:38:52.880Z,4.07
2023-01-20T07:41:21.186Z,3.55
2023-01-20T07:43:50.655Z,4.57
2023-01-20T07:46:18.200Z,4.22
2023-01-20T07:48:45.308Z,4.80
2023-01-20T07:51:14.650Z,4.25
2023-01-20T07:53:47.235Z,4.15
2023-01-20T07:56:19.862Z,4.45
2023-01-20T07:58:47.884Z,4.20
2023-01-20T08:01:23.214Z,4.70
2023-01-20T08:03:50.747Z,5.53
2023-01-20T08:06:20.145Z,3.92
2023-01-20T08:08:47.437Z,4.32
2023-01-20T08:11:16.288Z,4.53
2023-01-20T08:13:43.933Z,4.05
2023-01-20T08:16:13.442Z,4.47
2023-01-20T08:18:41.139Z,4.20
2023-01-20T08:21:16.393Z,4.25
2023-01-20T08:23:43.373Z,4.22
2023-01-20T08:26:10.052Z,4.85
2023-01-20T08:28:37.012Z,4.70
2023-01-20T08:31:12.952Z,3.88
2023-01-20T08:33:42.775Z,4.20
2023-01-20T08:36:16.152Z,4.10
2023-01-20T08:38:46.464Z,4.70
2023-01-20T08:41:18.145Z,4.32
2023-01-20T08:43:45.279Z,4.28
2023-01-20T08:46:15.537Z,4.40
2023-01-20T08:48:44.805Z,4.85
2023-01-20T08:51:15.408Z,5.15
2023-01-20T08:53:43.087Z,4.57
2023-01-20T08:56:11.077Z,4.57
2023-01-20T08:58:38.448Z,5.60
2023-01-20T09:01:14.486Z,4.88
2023-01-20T09:03:45.073Z,4.85
2023-01-20T09:08:43.723Z,4.47
2023-01-20T09:11:13.890Z,5.32
2023-01-20T09:13:40.830Z,5.93
2023-01-20T09:16:08.646Z,5.38
2023-01-20T09:18:35.670Z,5.88
2023-01-20T09:21:06.883Z,5.15
2023-01-20T09:23:35.845Z,5.82
2023-01-20T09:26:04.881Z,5.65
2023-01-20T09:28:32.033Z,5.38
2023-01-20T09:31:06.469Z,5.88
2023-01-20T09:33:36.268Z,5.50
2023-01-20T09:36:04.823Z,5.35
2023-01-20T09:38:50.457Z,4.72
2023-01-20T09:41:48.864Z,5.18
2023-01-20T09:44:26.845Z,5.57
2023-01-20T09:47:22.968Z,6.50
2023-01-20T09:50:30.518Z,6.38
2023-01-20T09:53:05.206Z,6.22
2023-01-20T09:55:49.278Z,6.28
2023-01-20T09:58:55.203Z,6.15
2023-01-20T10:01:31.062Z,6.13
2023-01-20T10:04:07.351Z,6.13
2023-01-20T10:06:51.711Z,6.18
2023-01-20T10:09:44.611Z,5.67
2023-01-20T10:12:18.427Z,5.65
2023-01-20T10:15:00.692Z,6.50
2023-01-20T10:17:43.044Z,6.40
2023-01-20T10:20:14.881Z,6.15
2023-01-20T10:22:58.840Z,6.50
2023-01-20T10:25:34.657Z,7.10
2023-01-20T10:28:12.394Z,6.63
2023-01-20T10:30:39.644Z,6.43
2023-01-20T10:33:25.637Z,6.60
2023-01-20T10:35:57.247Z,6.50
2023-01-20T10:38:37.255Z,5.97
2023-01-20T10:41:16.715Z,5.65
2023-01-20T10:43:45.093Z,5.22
2023-01-20T10:46:23.373Z,5.53
2023-01-20T10:49:21.461Z,4.93
2023-01-20T10:51:54.349Z,5.53
2023-01-20T10:54:41.179Z,5.25
2023-01-20T10:57:13.036Z,4.93
2023-01-20T10:59:44.503Z,4.70
2023-01-20T11:02:23.130Z,5.07
2023-01-20T11:05:10.153Z,5.25
2023-01-20T11:07:36.899Z,5.57
2023-01-20T11:10:14.818Z,4.55
2023-01-20T11:12:44.038Z,4.85
2023-01-20T11:15:27.982Z,5.22
2023-01-20T11:18:16.654Z,4.53
2023-01-20T11:20:53.383Z,4.90
2023-01-20T11:23:27.300Z,4.53
2023-01-20T11:25:59.485Z,4.65
2023-01-20T11:28:27.404Z,5.57
2023-01-20T11:30:56.402Z,4.82
2023-01-20T11:33:28.475Z,4.53
2023-01-20T11:36:19.143Z,4.63
2023-01-20T11:38:49.292Z,4.60
2023-01-20T11:41:26.736Z,4.75
2023-01-20T11:44:06.616Z,4.38
2023-01-20T11:46:38.169Z,4.72
2023-01-20T11:49:19.232Z,4.82
2023-01-20T11:51:57.506Z,4.53
2023-01-20T11:54:29.636Z,4.38
2023-01-20T11:57:07.301Z,5.03
2023-01-20T11:59:36.569Z,5.03
2023-01-20T12:02:09.897Z,5.03
2023-01-20T12:05:13.996Z,4.55
2023-01-20T12:07:47.268Z,4.72
2023-01-20T12:10:26.216Z,4.90
2023-01-20T12:13:17.208Z,5.13
2023-01-20T12:15:53.094Z,4.40
2023-01-20T12:18:53.341Z,5.18
2023-01-20T12:21:35.929Z,4.03
2023-01-20T12:24:42.073Z,4.95
2023-01-20T12:27:20.978Z,5.10
2023-01-20T12:29:52.075Z,4.95
2023-01-20T12:32:19.022Z,5.63
2023-01-20T12:34:45.973Z,5.75
2023-01-20T12:37:30.159Z,4.95
2023-01-20T12:40:00.308Z,4.50
2023-01-20T12:43:09.339Z,5.53
2023-01-20T12:45:54.804Z,5.45
2023-01-20T12:48:24.893Z,5.68
2023-01-20T12:50:51.628Z,5.32
2023-01-20T12:53:26.912Z,6.20
2023-01-20T12:56:15.620Z,5.75
2023-01-20T12:59:08.467Z,5.82
2023-01-20T13:01:50.768Z,5.70
2023-01-20T13:04:55.333Z,6.03
2023-01-20T13:07:53.719Z,6.15
2023-01-20T13:10:26.286Z,6.10
2023-01-20T13:13:04.253Z,5.50
2023-01-20T13:15:40.780Z,6.13
2023-01-20T13:18:28.574Z,6.40
2023-01-20T13:20:56.104Z,5.75
2023-01-20T13:23:27.312Z,6.05
2023-01-20T13:25:56.160Z,5.82
2023-01-20T13:28:26.646Z,6.78
2023-01-20T13:30:56.185Z,6.30
2023-01-20T13:33:38.322Z,6.22
2023-01-20T13:36:14.500Z,6.90
2023-01-20T13:38:41.592Z,6.97
2023-01-20T13:41:10.124Z,6.30
2023-01-20T13:43:42.842Z,5.88
2023-01-20T13:46:09.739Z,5.93
2023-01-20T13:48:38.728Z,5.95
2023-01-20T13:51:27.451Z,6.03
2023-01-20T13:53:54.479Z,6.65
2023-01-20T13:56:34.834Z,6.32
2023-01-20T13:59:02.301Z,6.18
2023-01-20T14:01:29.408Z,6.25
2023-01-20T14:04:02.974Z,7.50
2023-01-20T14:06:30.228Z,6.10
2023-01-20T14:08:57.382Z,6.90
2023-01-20T14:11:26.431Z,5.93
2023-01-20T14:13:59.225Z,6.32
2023-01-20T14:16:27.890Z,6.57
2023-01-20T14:18:58.422Z,6.80
2023-01-20T14:21:31.728Z,6.72
2023-01-20T14:23:58.970Z,6.97
2023-01-20T14:26:30.307Z,7.30
2023-01-20T14:29:03.454Z,8.00
2023-01-20T14:31:36.201Z,7.35
2023-01-20T14:34:24.508Z,7.60
2023-01-20T14:36:52.775Z,7.50
2023-01-20T14:39:28.354Z,8.98
2023-01-20T14:41:58.019Z,8.60
2023-01-20T14:44:30.896Z,8.95
2023-01-20T14:46:59.261Z,7.95
2023-01-20T14:49:34.924Z,8.75
2023-01-20T14:52:02.508Z,8.27
2023-01-20T14:54:42.291Z,9.00
2023-01-20T14:57:18.518Z,7.90
2023-01-20T14:59:45.907Z,9.10
2023-01-20T15:02:28.211Z,8.90
2023-01-20T15:04:55.771Z,8.05
2023-01-20T15:07:24.421Z,9.02
2023-01-20T15:10:04.282Z,9.63
2023-01-20T15:12:53.611Z,9.00
2023-01-20T15:15:25.101Z,8.82
2023-01-20T15:18:23.938Z,10.88
2023-01-20T15:21:15.603Z,10.82
2023-01-20T15:23:45.876Z,9.88
2023-01-20T15:26:29.648Z,11.18
2023-01-20T15:28:58.566Z,10.80
2023-01-20T15:31:26.702Z,11.00
2023-01-20T15:33:53.743Z,10.68
2023-01-20T15:36:29.389Z,11.95
2023-01-20T15:38:56.388Z,11.63
2023-01-20T15:41:24.512Z,11.15
2023-01-20T15:43:52.743Z,11.95
2023-01-20T15:46:20.278Z,12.65
2023-01-20T15:48:47.261Z,13.52
2023-01-20T15:51:17.759Z,13.48
2023-01-20T15:53:45.565Z,15.80
2023-01-20T15:56:27.755Z,14.38
2023-01-20T15:58:55.442Z,14.27
2023-01-20T16:01:25.237Z,15.75
2023-01-20T16:03:55.060Z,16.05
2023-01-20T16:06:30.695Z,17.60
2023-01-20T16:09:00.542Z,19.52
2023-01-20T16:11:27.718Z,19.08
2023-01-20T16:13:54.393Z,17.23
2023-01-20T16:16:24.068Z,18.85
2023-01-20T16:18:51.420Z,19.27
2023-01-20T16:21:20.136Z,17.83
2023-01-20T16:23:47.047Z,18.27
2023-01-20T16:26:24.615Z,14.80
2023-01-20T16:28:54.080Z,15.20
2023-01-20T16:31:22.254Z,15.30
2023-01-20T16:33:49.554Z,15.30
2023-01-20T16:36:18.832Z,14.13
2023-01-20T16:38:46.864Z,13.93
2023-01-20T16:41:17.848Z,14.05
2023-01-20T16:43:44.696Z,13.20
2023-01-20T16:46:20.656Z,13.38
2023-01-20T16:48:48.056Z,13.27
2023-01-20T16:51:23.434Z,12.30
2023-01-20T16:53:50.410Z,11.77
2023-01-20T16:56:21.555Z,12.15
2023-01-20T16:58:50.288Z,12.40
2023-01-20T17:01:22.262Z,13.05
2023-01-20T17:03:50.948Z,13.30
2023-01-20T17:06:21.096Z,12.98
2023-01-20T17:08:53.096Z,14.15
2023-01-20T17:11:40.420Z,13.07
2023-01-20T17:14:09.525Z,13.18
2023-01-20T17:16:36.598Z,13.18
2023-01-20T17:19:04.596Z,13.18
2023-01-20T17:21:34.110Z,11.90
2023-01-20T17:24:03.368Z,12.90
2023-01-20T17:26:31.280Z,12.32
2023-01-20T17:29:02.561Z,14.18
2023-01-20T17:31:32.073Z,13.57
2023-01-20T17:33:59.110Z,13.95
2023-01-20T17:36:26.108Z,14.98
2023-01-20T17:38:52.935Z,14.45
2023-01-20T17:41:20.500Z,12.98
2023-01-20T17:43:47.523Z,13.02
2023-01-20T17:46:19.129Z,13.13
2023-01-20T17:48:47.041Z,15.88
2023-01-20T17:51:20.605Z,16.55
2023-01-20T17:53:49.223Z,14.40
2023-01-20T17:56:17.611Z,16.17
2023-01-20T17:58:45.803Z,17.17
2023-01-20T18:01:34.961Z,14.90
2023-01-20T18:04:04.425Z,14.15
2023-01-20T18:06:35.690Z,16.23
2023-01-20T18:09:02.648Z,15.85
2023-01-20T18:11:32.963Z,16.98
2023-01-20T18:14:00.809Z,15.88
2023-01-20T18:16:32.685Z,16.38
2023-01-20T18:18:59.659Z,15.15
2023-01-20T18:21:34.844Z,14.77
2023-01-20T18:24:03.785Z,14.27
2023-01-20T18:26:32.977Z,15.23
2023-01-20T18:29:02.228Z,14.75
2023-01-20T18:31:30.842Z,14.57
2023-01-20T18:34:00.287Z,13.93
2023-01-20T18:36:38.877Z,10.75
2023-01-20T18:39:07.911Z,13.25
2023-01-20T18:41:37.819Z,14.60
2023-01-20T18:44:05.646Z,10.15
2023-01-20T18:46:33.036Z,10.15
2023-01-20T18:49:00.791Z,12.65
2023-01-20T18:51:29.989Z,13.20
2023-01-20T18:54:00.587Z,13.25
2023-01-20T18:56:29.126Z,13.95
2023-01-20T18:58:56.811Z,12.68
2023-01-20T19:01:29.060Z,12.45
2023-01-20T19:03:57.280Z,11.30
2023-01-20T19:06:29.694Z,11.93
2023-01-20T19:08:58.991Z,12.48
2023-01-20T19:11:29.294Z,12.57
2023-01-20T19:13:56.712Z,12.15
2023-01-20T19:16:26.176Z,10.15
2023-01-20T19:18:55.559Z,12.75
2023-01-20T19:21:24.176Z,13.05
2023-01-20T19:23:52.762Z,13.27
2023-01-20T19:26:20.312Z,14.68
2023-01-20T19:28:49.581Z,10.15
2023-01-20T19:31:19.216Z,9.63
2023-01-20T19:33:46.702Z,9.50
2023-01-20T19:36:15.857Z,11.30
2023-01-20T19:38:43.625Z,10.70
2023-01-20T19:41:15.536Z,12.35
2023-01-20T19:43:43.106Z,13.82
2023-01-20T19:46:13.380Z,14.75
2023-01-20T19:48:40.989Z,15.55
2023-01-20T19:51:15.060Z,16.23
2023-01-20T19:53:43.365Z,11.32
2023-01-20T19:56:13.179Z,13.80
2023-01-20T19:58:40.540Z,13.90
2023-01-20T20:01:29.192Z,14.48
2023-01-20T20:03:58.307Z,12.00
2023-01-20T20:06:33.621Z,11.63
2023-01-20T20:09:21.350Z,12.48
2023-01-20T20:11:48.897Z,14.10
2023-01-20T20:14:18.358Z,11.77
2023-01-20T20:16:46.102Z,12.95
2023-01-20T20:19:16.356Z,13.38
2023-01-20T20:21:45.331Z,13.80
2023-01-20T20:24:14.142Z,13.18
2023-01-20T20:26:42.717Z,13.55
2023-01-20T20:29:11.197Z,12.15
2023-01-20T20:31:40.527Z,11.90
2023-01-20T20:34:10.983Z,13.27
2023-01-20T20:36:39.560Z,11.73
2023-01-20T20:39:08.129Z,13.52
2023-01-20T20:41:38.940Z,11.90
2023-01-20T20:44:05.970Z,14.07
2023-01-20T20:46:33.105Z,12.52
2023-01-20T20:49:01.221Z,13.88
2023-01-20T20:51:31.932Z,18.60
2023-01-20T20:54:01.669Z,12.25
2023-01-20T20:56:31.842Z,11.68
2023-01-20T20:59:02.586Z,10.68
2023-01-20T21:01:33.211Z,11.85
2023-01-20T21:04:01.002Z,12.38
2023-01-20T21:06:29.088Z,12.55
2023-01-20T21:08:56.535Z,12.30
2023-01-20T21:11:25.171Z,13.80
2023-01-20T21:13:52.769Z,13.23
2023-01-20T21:16:22.432Z,15.70
2023-01-20T21:18:52.089Z,13.80
2023-01-20T21:21:19.748Z,14.18
2023-01-20T21:23:55.251Z,13.57
2023-01-20T21:26:24.149Z,11.32
2023-01-20T21:28:51.121Z,12.02
2023-01-20T21:31:23.757Z,11.35
2023-01-20T21:33:55.648Z,10.85
2023-01-20T21:36:23.286Z,13.35
2023-01-20T21:38:50.512Z,13.48
2023-01-20T21:41:18.296Z,13.32
2023-01-20T21:44:05.130Z,11.32
2023-01-20T21:46:39.010Z,10.68
2023-01-20T21:49:26.335Z,7.00
2023-01-20T21:52:12.598Z,8.45
2023-01-20T21:54:41.543Z,9.18
2023-01-20T21:57:09.232Z,9.77
2023-01-20T21:59:36.467Z,7.78
2023-01-20T22:02:03.467Z,8.00
2023-01-20T22:04:30.842Z,10.65
2023-01-20T22:06:57.896Z,9.07
2023-01-20T22:09:25.025Z,9.98
2023-01-20T22:11:51.779Z,10.10
2023-01-20T22:14:18.787Z,9.48
2023-01-20T22:16:45.752Z,9.80
2023-01-20T22:19:14.214Z,10.23
2023-01-20T22:21:41.774Z,9.82
2023-01-20T22:24:10.174Z,8.60
2023-01-20T22:26:37.330Z,7.25
2023-01-20T22:29:04.300Z,8.32
2023-01-20T22:31:32.186Z,7.22
2023-01-20T22:33:59.931Z,7.97
2023-01-20T22:36:26.945Z,9.55
2023-01-20T22:38:54.020Z,9.43
2023-01-20T22:41:21.586Z,9.25
2023-01-20T22:43:50.255Z,8.18
2023-01-20T22:46:19.500Z,7.18
2023-01-20T22:48:47.199Z,8.00
2023-01-20T22:51:16.804Z,8.23
2023-01-20T22:53:44.241Z,8.30
2023-01-20T22:56:16.996Z,6.93
2023-01-20T22:58:45.026Z,7.25
2023-01-20T23:01:17.300Z,7.60
2023-01-20T23:03:45.263Z,8.25
2023-01-20T23:06:13.053Z,8.50
2023-01-20T23:08:41.312Z,8.32
2023-01-20T23:11:14.322Z,9.05
2023-01-20T23:13:41.643Z,8.70
2023-01-20T23:16:13.723Z,9.52
2023-01-20T23:18:40.806Z,8.48
2023-01-20T23:21:07.829Z,8.13
2023-01-20T23:23:34.968Z,8.70
2023-01-20T23:26:03.812Z,8.45
2023-01-20T23:28:31.147Z,7.40
2023-01-20T23:31:06.518Z,9.60
2023-01-20T23:33:34.221Z,9.27
2023-01-20T23:36:05.376Z,8.88
2023-01-20T23:38:32.554Z,9.98
2023-01-20T23:40:59.677Z,9.93
2023-01-20T23:43:26.720Z,9.57
2023-01-20T23:45:57.704Z,10.73
2023-01-20T23:48:24.755Z,10.73
2023-01-20T23:50:52.204Z,11.02
2023-01-20T23:53:19.865Z,11.63
2023-01-20T23:55:46.695Z,12.32
2023-01-20T23:58:13.572Z,11.27
